Time;durP1;ratioP1;P1;durP2;ratioP2;P2;SDS_P1;SDS_P2;PMS_P1;PMS_P2;Temp;Humidity;BMP_temperature;BMP_pressure;BME280_temperature;BME280_humidity;BME280_pressure;Samples;Min_cycle;Max_cycle;Signal;HPM_P1;HPM_P2
2023/07/29 00:00:55;;;;;;;1.83;1.20;;;19.60;99.90;;;;;;4218791;28;20230;-77
2023/07/29 00:02:56;;;;;;;1.30;1.20;;;19.60;99.90;;;;;;4222686;28;20224;-77
2023/07/29 00:04:58;;;;;;;1.77;0.97;;;19.60;99.90;;;;;;4217810;28;20325;-77
2023/07/29 00:07:00;;;;;;;1.40;1.10;;;19.70;99.90;;;;;;4221299;28;20239;-77
2023/07/29 00:09:02;;;;;;;2.50;1.50;;;19.60;99.90;;;;;;4221111;28;20226;-77
2023/07/29 00:11:03;;;;;;;0.90;0.90;;;19.60;99.90;;;;;;4215274;28;20236;-77
2023/07/29 00:13:05;;;;;;;1.30;1.20;;;19.60;99.90;;;;;;4215167;28;20204;-77
2023/07/29 00:15:08;;;;;;;1.67;1.20;;;19.50;99.90;;;;;;4219340;28;20827;-77
2023/07/29 00:17:11;;;;;;;1.17;1.07;;;19.50;99.90;;;;;;4220316;28;20240;-76
2023/07/29 00:19:13;;;;;;;1.10;1.00;;;19.50;99.90;;;;;;4218412;28;20212;-76
2023/07/29 00:21:14;;;;;;;1.67;1.10;;;19.50;99.90;;;;;;4219742;28;20656;-76
2023/07/29 00:23:18;;;;;;;1.23;1.13;;;19.40;99.90;;;;;;4217300;28;20204;-76
2023/07/29 00:25:20;;;;;;;1.97;1.17;;;19.40;99.90;;;;;;4219248;28;20209;-76
2023/07/29 00:27:22;;;;;;;1.37;1.10;;;19.40;99.90;;;;;;4221641;28;20736;-76
2023/07/29 00:29:24;;;;;;;1.03;1.00;;;19.40;99.90;;;;;;4217749;28;20205;-76
2023/07/29 00:31:26;;;;;;;1.33;1.20;;;19.40;99.90;;;;;;4224879;28;20651;-77
2023/07/29 00:33:30;;;;;;;2.93;1.40;;;19.40;99.90;;;;;;4225175;28;20642;-76
2023/07/29 00:35:31;;;;;;;4.67;1.20;;;19.40;99.90;;;;;;4225326;28;20213;-77
2023/07/29 00:37:32;;;;;;;2.53;1.10;;;19.40;99.90;;;;;;4225081;28;20636;-76
2023/07/29 00:39:34;;;;;;;2.37;1.20;;;19.40;99.90;;;;;;4223366;28;20200;-77
2023/07/29 00:41:36;;;;;;;1.30;1.20;;;19.30;99.90;;;;;;4227051;28;20276;-77
2023/07/29 00:43:38;;;;;;;1.27;1.10;;;19.30;99.90;;;;;;4219504;28;20250;-76
2023/07/29 00:45:43;;;;;;;1.17;0.90;;;19.30;99.90;;;;;;4225292;28;20197;-77
2023/07/29 00:47:46;;;;;;;2.10;1.27;;;19.40;99.90;;;;;;4224961;28;20208;-76
2023/07/29 00:49:49;;;;;;;1.77;1.23;;;19.30;99.90;;;;;;4225946;28;20208;-77
2023/07/29 00:51:51;;;;;;;1.23;1.13;;;19.30;99.90;;;;;;4218081;28;20737;-76
2023/07/29 00:53:53;;;;;;;1.90;1.20;;;19.30;99.90;;;;;;4225796;28;20300;-76
2023/07/29 00:55:55;;;;;;;1.87;1.00;;;19.30;99.90;;;;;;4220529;28;20295;-77
2023/07/29 00:57:58;;;;;;;1.30;1.20;;;19.30;99.90;;;;;;4218203;28;20395;-76
2023/07/29 01:00:02;;;;;;;1.70;1.10;;;19.30;99.90;;;;;;4221858;28;20262;-76
2023/07/29 01:02:05;;;;;;;1.40;1.30;;;19.30;99.90;;;;;;4218817;28;20233;-77
2023/07/29 01:04:07;;;;;;;3.50;1.10;;;19.30;99.90;;;;;;4217947;28;20208;-77
2023/07/29 01:06:24;;;;;;;1.20;1.00;;;19.30;99.90;;;;;;4218082;28;20221;-77
2023/07/29 01:08:36;;;;;;;1.40;1.00;;;19.30;99.90;;;;;;4218753;28;20717;-76
2023/07/29 01:10:47;;;;;;;1.60;1.20;;;19.30;99.90;;;;;;4221951;28;20264;-77
2023/07/29 01:12:54;;;;;;;1.13;1.00;;;19.20;99.90;;;;;;4214450;28;20199;-77
2023/07/29 01:15:10;;;;;;;1.20;1.10;;;19.20;99.90;;;;;;4218771;28;20202;-77
2023/07/29 01:17:18;;;;;;;1.63;1.20;;;19.20;99.90;;;;;;4216846;28;20237;-77
2023/07/29 01:19:40;;;;;;;1.37;1.10;;;19.20;99.90;;;;;;4220000;28;20208;-77
2023/07/29 01:21:43;;;;;;;1.30;1.20;;;19.20;99.90;;;;;;4221701;28;20229;-77
2023/07/29 01:23:46;;;;;;;1.37;1.10;;;19.20;99.90;;;;;;4226149;28;20324;-76
2023/07/29 01:25:49;;;;;;;1.57;1.10;;;19.10;99.90;;;;;;4224068;28;20227;-77
2023/07/29 01:27:52;;;;;;;1.80;1.30;;;19.10;99.90;;;;;;4221397;28;20208;-77
2023/07/29 01:29:55;;;;;;;1.20;1.10;;;19.20;99.90;;;;;;4223876;28;20631;-77
2023/07/29 01:32:02;;;;;;;1.33;1.23;;;19.10;99.90;;;;;;4222065;28;20200;-76
2023/07/29 01:34:11;;;;;;;1.27;1.17;;;19.10;99.90;;;;;;4220232;28;20214;-77
2023/07/29 01:36:17;;;;;;;1.90;1.10;;;19.10;99.90;;;;;;4220692;28;20723;-76
2023/07/29 01:38:21;;;;;;;3.37;1.10;;;19.10;99.90;;;;;;4219673;28;20229;-76
2023/07/29 01:40:27;;;;;;;4.40;1.43;;;19.10;99.90;;;;;;4222949;28;20543;-76
2023/07/29 01:42:31;;;;;;;2.47;1.20;;;19.10;99.90;;;;;;4218999;28;20706;-76
2023/07/29 01:44:34;;;;;;;1.20;1.10;;;19.10;99.90;;;;;;4220669;28;20244;-77
2023/07/29 01:46:36;;;;;;;2.93;1.20;;;19.10;99.90;;;;;;4223649;28;20286;-77
2023/07/29 01:48:37;;;;;;;3.13;1.40;;;19.20;99.90;;;;;;4222809;28;20236;-77
2023/07/29 01:50:39;;;;;;;2.77;1.23;;;19.10;99.90;;;;;;4222335;28;20248;-77
2023/07/29 01:52:41;;;;;;;2.50;1.40;;;19.20;99.90;;;;;;4220310;28;20266;-77
2023/07/29 01:54:43;;;;;;;1.63;1.23;;;19.20;99.90;;;;;;4223920;28;20296;-77
2023/07/29 01:56:46;;;;;;;1.40;1.30;;;19.20;99.90;;;;;;4221224;28;20256;-76
2023/07/29 01:58:48;;;;;;;4.23;1.23;;;19.20;99.90;;;;;;4220702;28;20212;-77
2023/07/29 02:00:50;;;;;;;2.00;1.27;;;19.20;99.90;;;;;;4219085;28;20236;-77
2023/07/29 02:02:52;;;;;;;1.40;1.30;;;19.20;99.90;;;;;;4221388;28;20253;-77
2023/07/29 02:04:55;;;;;;;1.23;1.10;;;19.00;99.90;;;;;;4223111;28;20296;-77
2023/07/29 02:06:57;;;;;;;1.20;1.10;;;19.20;99.90;;;;;;4224797;28;20341;-77
2023/07/29 02:08:59;;;;;;;1.87;1.20;;;19.20;99.90;;;;;;4221104;28;20209;-77
2023/07/29 02:11:01;;;;;;;1.57;1.17;;;19.20;99.90;;;;;;4220913;28;20236;-77
2023/07/29 02:13:04;;;;;;;1.37;1.10;;;19.20;99.90;;;;;;4223585;28;20200;-77
2023/07/29 02:15:07;;;;;;;1.20;1.10;;;19.20;99.90;;;;;;4219950;28;20213;-76
2023/07/29 02:17:09;;;;;;;1.30;1.20;;;19.20;99.90;;;;;;4222532;28;20240;-76
2023/07/29 02:19:11;;;;;;;1.77;1.20;;;19.20;99.90;;;;;;4219436;28;20681;-77
2023/07/29 02:21:14;;;;;;;2.63;1.30;;;19.20;99.90;;;;;;4222546;28;20201;-77
2023/07/29 02:23:17;;;;;;;2.73;1.20;;;19.20;99.90;;;;;;4222945;28;20286;-77
2023/07/29 02:25:18;;;;;;;1.40;1.30;;;19.30;99.90;;;;;;4223925;28;20212;-77
2023/07/29 02:27:20;;;;;;;1.30;1.20;;;19.30;99.90;;;;;;4221959;28;20290;-77
2023/07/29 02:29:24;;;;;;;2.07;1.30;;;19.30;99.90;;;;;;4223107;28;20760;-77
2023/07/29 02:31:27;;;;;;;1.73;1.20;;;19.30;99.90;;;;;;4219302;28;20217;-77
2023/07/29 02:33:27;;;;;;;2.13;1.13;;;19.30;99.90;;;;;;4221306;28;20211;-77
2023/07/29 02:35:29;;;;;;;1.70;1.10;;;19.30;99.90;;;;;;4223499;28;20270;-77
2023/07/29 02:37:31;;;;;;;2.73;1.30;;;19.20;99.90;;;;;;4218689;28;20689;-77
2023/07/29 02:39:33;;;;;;;1.23;1.13;;;19.20;99.90;;;;;;4219194;28;20287;-77
2023/07/29 02:41:35;;;;;;;1.00;0.90;;;19.20;99.90;;;;;;4221783;28;20274;-77
2023/07/29 02:43:37;;;;;;;1.47;1.33;;;19.20;99.90;;;;;;4220858;28;20233;-77
2023/07/29 02:45:40;;;;;;;2.83;1.23;;;19.20;99.90;;;;;;4221491;28;20238;-77
2023/07/29 02:47:42;;;;;;;1.53;1.33;;;19.10;99.90;;;;;;4222039;28;20224;-77
2023/07/29 02:49:44;;;;;;;1.83;1.27;;;19.10;99.90;;;;;;4218743;28;20248;-77
2023/07/29 02:51:46;;;;;;;2.03;1.40;;;19.10;99.90;;;;;;4215861;28;20214;-77
2023/07/29 02:53:48;;;;;;;2.70;1.27;;;19.00;99.90;;;;;;4216473;28;20303;-77
2023/07/29 02:55:50;;;;;;;3.23;1.53;;;19.00;99.90;;;;;;4217943;28;20232;-77
2023/07/29 02:57:52;;;;;;;4.83;1.30;;;19.00;99.90;;;;;;4222540;28;20214;-77
2023/07/29 02:59:54;;;;;;;1.67;1.23;;;19.00;99.90;;;;;;4215274;28;20204;-77
2023/07/29 03:01:57;;;;;;;1.40;1.30;;;18.90;99.90;;;;;;4217462;28;20201;-76
2023/07/29 03:03:58;;;;;;;1.20;1.10;;;18.90;99.90;;;;;;4216532;28;20789;-77
2023/07/29 03:06:01;;;;;;;2.70;1.27;;;18.90;99.90;;;;;;4219684;28;20263;-77
2023/07/29 03:08:03;;;;;;;1.67;1.50;;;18.90;99.90;;;;;;4221464;28;20548;-77
2023/07/29 03:10:06;;;;;;;1.83;1.43;;;18.90;99.90;;;;;;4220986;28;20207;-77
2023/07/29 03:12:08;;;;;;;1.13;1.03;;;18.90;99.90;;;;;;4213496;28;20201;-76
2023/07/29 03:14:10;;;;;;;1.07;1.00;;;18.80;99.90;;;;;;4222950;28;20201;-76
2023/07/29 03:16:14;;;;;;;1.40;1.30;;;18.80;99.90;;;;;;4220028;28;20352;-77
2023/07/29 03:18:17;;;;;;;1.73;1.23;;;18.80;99.90;;;;;;4220291;28;21177;-77
2023/07/29 03:20:20;;;;;;;2.13;1.43;;;18.80;99.90;;;;;;4220620;28;20303;-77
2023/07/29 03:22:21;;;;;;;1.33;1.10;;;18.80;99.90;;;;;;4219484;28;20245;-76
2023/07/29 03:24:23;;;;;;;1.70;1.30;;;18.70;99.90;;;;;;4221694;28;20212;-77
2023/07/29 03:26:25;;;;;;;1.70;1.50;;;18.70;99.90;;;;;;4217400;28;20591;-77
2023/07/29 03:28:28;;;;;;;1.47;1.33;;;18.70;99.90;;;;;;4218882;28;20222;-76
2023/07/29 03:30:30;;;;;;;1.20;1.10;;;18.70;99.90;;;;;;4219906;28;20243;-76
2023/07/29 03:32:31;;;;;;;1.83;1.10;;;18.70;99.90;;;;;;4219058;28;20244;-76
2023/07/29 03:34:34;;;;;;;1.33;1.23;;;18.70;99.90;;;;;;4219512;28;20574;-77
2023/07/29 03:36:36;;;;;;;2.17;1.57;;;18.70;99.90;;;;;;4217212;28;20232;-76
2023/07/29 03:38:41;;;;;;;1.87;1.37;;;18.70;99.90;;;;;;4218208;28;20233;-77
2023/07/29 03:40:43;;;;;;;1.93;1.30;;;18.70;99.90;;;;;;4219892;28;20255;-76
2023/07/29 03:42:44;;;;;;;1.83;1.30;;;18.70;99.90;;;;;;4220087;28;20265;-77
2023/07/29 03:44:46;;;;;;;2.63;1.33;;;18.70;99.90;;;;;;4217875;28;20243;-76
2023/07/29 03:46:48;;;;;;;2.73;1.47;;;18.70;99.90;;;;;;4219341;28;20250;-77
2023/07/29 03:48:50;;;;;;;1.40;1.30;;;18.70;99.90;;;;;;4218541;28;20231;-76
2023/07/29 03:50:54;;;;;;;1.50;1.40;;;18.70;99.90;;;;;;4217814;28;20300;-77
2023/07/29 03:52:56;;;;;;;2.17;1.50;;;18.60;99.90;;;;;;4218066;28;20288;-76
2023/07/29 03:54:59;;;;;;;1.67;1.47;;;18.70;99.90;;;;;;4218404;28;20291;-77
2023/07/29 03:57:01;;;;;;;1.17;1.00;;;18.60;99.90;;;;;;4220861;28;20316;-76
2023/07/29 03:59:07;;;;;;;1.93;1.20;;;18.60;99.90;;;;;;4225233;28;20298;-77
2023/07/29 04:01:08;;;;;;;1.63;1.40;;;18.60;99.90;;;;;;4220615;28;20245;-77
2023/07/29 04:03:10;;;;;;;3.20;1.40;;;18.60;99.90;;;;;;4221392;28;20258;-77
2023/07/29 04:05:12;;;;;;;2.03;1.40;;;18.60;99.90;;;;;;4218993;28;20608;-77
2023/07/29 04:07:15;;;;;;;2.47;1.60;;;18.60;99.90;;;;;;4217855;28;20238;-77
2023/07/29 04:09:17;;;;;;;1.70;1.43;;;18.60;99.90;;;;;;4220223;28;20832;-77
2023/07/29 04:11:18;;;;;;;3.13;1.70;;;18.50;99.90;;;;;;4221477;28;20212;-76
2023/07/29 04:13:20;;;;;;;2.83;1.50;;;18.50;99.90;;;;;;4219540;28;20208;-76
2023/07/29 04:15:22;;;;;;;1.57;1.47;;;18.50;99.90;;;;;;4223188;28;20281;-77
2023/07/29 04:17:24;;;;;;;3.00;1.33;;;18.50;99.90;;;;;;4222378;28;20537;-77
2023/07/29 04:19:26;;;;;;;5.27;1.53;;;18.50;99.90;;;;;;4222161;28;20209;-76
2023/07/29 04:21:30;;;;;;;2.33;1.50;;;18.50;99.90;;;;;;4223389;28;20213;-77
2023/07/29 04:23:36;;;;;;;1.40;1.30;;;18.50;99.90;;;;;;4221529;28;20654;-77
2023/07/29 04:25:38;;;;;;;1.67;1.57;;;18.50;99.90;;;;;;4225240;28;20209;-77
2023/07/29 04:27:40;;;;;;;4.93;1.57;;;18.50;99.90;;;;;;4223103;28;20697;-77
2023/07/29 04:29:42;;;;;;;2.10;1.57;;;18.50;99.90;;;;;;4226648;28;20279;-77
2023/07/29 04:31:44;;;;;;;1.60;1.50;;;18.50;99.90;;;;;;4227651;28;20279;-77
2023/07/29 04:33:46;;;;;;;3.03;1.50;;;18.50;99.90;;;;;;4228816;28;20803;-77
2023/07/29 04:35:48;;;;;;;2.00;1.50;;;18.50;99.90;;;;;;4227052;28;20266;-77
2023/07/29 04:37:50;;;;;;;3.17;1.60;;;18.50;99.90;;;;;;4225073;28;20792;-76
2023/07/29 04:39:53;;;;;;;1.60;1.50;;;18.50;99.90;;;;;;4224092;28;20234;-77
2023/07/29 04:41:55;;;;;;;2.10;1.73;;;18.50;99.90;;;;;;4226092;28;20231;-77
2023/07/29 04:43:57;;;;;;;2.20;1.60;;;18.50;99.90;;;;;;4228180;28;20227;-77
2023/07/29 04:45:58;;;;;;;2.10;1.57;;;18.40;99.90;;;;;;4226236;28;20234;-76
2023/07/29 04:48:00;;;;;;;2.50;1.70;;;18.50;99.90;;;;;;4225776;28;20280;-77
2023/07/29 04:50:02;;;;;;;3.10;1.50;;;18.50;99.90;;;;;;4222275;28;20835;-77
2023/07/29 04:52:05;;;;;;;1.87;1.67;;;18.50;99.90;;;;;;4219896;28;20208;-77
2023/07/29 04:54:07;;;;;;;1.77;1.57;;;18.50;99.90;;;;;;4214340;28;20204;-77
2023/07/29 04:56:10;;;;;;;1.87;1.60;;;18.50;99.90;;;;;;4225843;28;20231;-77
2023/07/29 04:58:12;;;;;;;4.30;1.60;;;18.50;99.90;;;;;;4225340;28;20220;-77
2023/07/29 05:00:14;;;;;;;1.97;1.77;;;18.50;99.90;;;;;;4220578;28;20708;-77
2023/07/29 05:02:16;;;;;;;1.60;1.40;;;18.60;99.90;;;;;;4222874;28;20216;-77
2023/07/29 05:04:18;;;;;;;2.50;2.00;;;18.60;99.90;;;;;;4223477;28;20334;-76
2023/07/29 05:06:20;;;;;;;2.33;1.60;;;18.60;99.90;;;;;;4223550;28;20260;-77
2023/07/29 05:08:21;;;;;;;2.33;1.90;;;18.60;99.90;;;;;;4222161;28;20239;-77
2023/07/29 05:10:23;;;;;;;2.93;1.80;;;18.60;99.90;;;;;;4223781;28;20291;-77
2023/07/29 05:12:27;;;;;;;2.90;1.90;;;18.70;99.90;;;;;;4224640;28;20208;-77
2023/07/29 05:14:29;;;;;;;3.87;1.90;;;18.70;99.90;;;;;;4223334;28;20214;-76
2023/07/29 05:16:29;;;;;;;2.20;1.60;;;18.70;99.90;;;;;;4217535;28;20272;-76
2023/07/29 05:18:31;;;;;;;2.20;1.83;;;18.80;99.90;;;;;;4224610;28;20212;-77
2023/07/29 05:20:33;;;;;;;2.27;1.57;;;18.80;99.90;;;;;;4224784;28;20208;-77
2023/07/29 05:22:35;;;;;;;3.80;1.97;;;18.90;99.90;;;;;;4227061;28;20307;-77
2023/07/29 05:24:37;;;;;;;2.67;1.63;;;18.90;99.90;;;;;;4228966;28;20322;-76
2023/07/29 05:26:39;;;;;;;4.87;1.67;;;18.90;99.90;;;;;;4227248;28;20236;-77
2023/07/29 05:28:42;;;;;;;1.87;1.53;;;18.90;99.90;;;;;;4231877;28;20227;-77
2023/07/29 05:30:47;;;;;;;1.70;1.60;;;18.90;99.90;;;;;;4230033;28;20225;-76
2023/07/29 05:32:49;;;;;;;2.37;1.40;;;18.90;99.90;;;;;;4231882;28;20236;-76
2023/07/29 05:34:51;;;;;;;1.70;1.60;;;19.00;99.90;;;;;;4229497;28;20204;-77
2023/07/29 05:36:53;;;;;;;3.40;1.50;;;19.00;99.90;;;;;;4222101;28;20599;-77
2023/07/29 05:38:54;;;;;;;2.70;1.70;;;19.10;99.90;;;;;;4219900;28;20658;-77
2023/07/29 05:40:56;;;;;;;5.70;1.60;;;19.10;99.90;;;;;;4223828;28;20208;-77
2023/07/29 05:42:57;;;;;;;2.17;1.50;;;19.20;99.90;;;;;;4220930;28;20232;-77
2023/07/29 05:45:03;;;;;;;2.07;1.70;;;19.20;99.90;;;;;;4222062;28;20240;-77
2023/07/29 05:47:05;;;;;;;1.83;1.70;;;19.20;99.90;;;;;;4217794;28;20608;-77
2023/07/29 05:49:07;;;;;;;1.63;1.47;;;19.30;99.90;;;;;;4218291;28;20205;-77
2023/07/29 05:51:09;;;;;;;2.03;1.80;;;19.40;99.90;;;;;;4222166;28;20209;-77
2023/07/29 05:53:10;;;;;;;2.47;1.67;;;19.40;99.90;;;;;;4223164;28;20651;-77
2023/07/29 05:55:12;;;;;;;2.63;1.80;;;19.40;99.90;;;;;;4223477;28;20296;-77
2023/07/29 05:57:14;;;;;;;2.37;1.43;;;19.50;99.90;;;;;;4220138;28;20235;-77
2023/07/29 05:59:16;;;;;;;1.77;1.50;;;19.60;99.90;;;;;;4222278;28;20212;-77
2023/07/29 06:01:21;;;;;;;1.67;1.50;;;19.60;99.90;;;;;;4221989;28;20205;-77
2023/07/29 06:03:23;;;;;;;2.10;1.40;;;19.70;99.90;;;;;;4216574;28;20581;-77
2023/07/29 06:05:25;;;;;;;2.53;1.73;;;19.70;99.90;;;;;;4219276;28;20630;-77
2023/07/29 06:07:29;;;;;;;3.00;1.50;;;19.80;99.90;;;;;;4221695;28;20228;-77
2023/07/29 06:09:31;;;;;;;1.60;1.50;;;19.80;99.90;;;;;;4219175;28;20205;-77
2023/07/29 06:11:33;;;;;;;2.13;1.40;;;19.90;99.90;;;;;;4222419;28;20213;-77
2023/07/29 06:13:35;;;;;;;13.10;8.87;;;19.90;99.90;;;;;;4220814;28;20215;-77
2023/07/29 06:15:36;;;;;;;6.37;4.27;;;20.00;99.90;;;;;;4224790;28;20209;-77
2023/07/29 06:17:39;;;;;;;3.33;1.90;;;20.10;99.90;;;;;;4220110;28;20734;-76
2023/07/29 06:19:41;;;;;;;1.70;1.60;;;20.10;99.90;;;;;;4214897;28;20209;-76
2023/07/29 06:21:43;;;;;;;2.03;1.80;;;20.20;99.90;;;;;;4218571;28;20262;-76
2023/07/29 06:23:45;;;;;;;2.07;1.60;;;20.20;99.90;;;;;;4224410;28;20229;-76
2023/07/29 06:25:47;;;;;;;1.70;1.60;;;20.20;99.90;;;;;;4222244;28;20213;-76
2023/07/29 06:27:49;;;;;;;2.37;1.60;;;20.20;99.90;;;;;;4225022;28;20309;-76
2023/07/29 06:29:50;;;;;;;1.50;1.40;;;20.30;99.90;;;;;;4218070;28;20220;-76
2023/07/29 06:31:53;;;;;;;2.20;1.57;;;20.40;99.90;;;;;;4222209;28;20931;-76
2023/07/29 06:33:56;;;;;;;2.83;1.90;;;20.40;99.90;;;;;;4214779;28;20244;-76
2023/07/29 06:35:58;;;;;;;2.50;2.00;;;20.40;99.90;;;;;;4220683;28;20314;-76
2023/07/29 06:38:00;;;;;;;1.50;1.33;;;20.50;99.90;;;;;;4221388;28;20678;-77
2023/07/29 06:40:02;;;;;;;3.60;1.80;;;20.50;99.90;;;;;;4219264;28;20275;-76
2023/07/29 06:42:05;;;;;;;2.83;1.70;;;20.60;99.90;;;;;;4221962;28;20213;-76
2023/07/29 06:44:05;;;;;;;1.83;1.40;;;20.70;99.90;;;;;;4208442;28;20231;-76
2023/07/29 06:46:07;;;;;;;2.73;1.80;;;20.70;99.90;;;;;;4220350;28;20597;-76
2023/07/29 06:48:09;;;;;;;3.23;1.57;;;20.80;99.90;;;;;;4220150;28;20299;-76
2023/07/29 06:50:13;;;;;;;3.80;1.60;;;20.80;99.90;;;;;;4220370;28;20284;-76
2023/07/29 06:52:15;;;;;;;1.50;1.40;;;21.00;99.90;;;;;;4221884;28;20250;-76
2023/07/29 06:54:16;;;;;;;1.83;1.70;;;21.00;99.90;;;;;;4222270;28;20753;-76
2023/07/29 06:56:18;;;;;;;1.60;1.50;;;21.10;99.90;;;;;;4220837;28;20230;-76
2023/07/29 06:58:20;;;;;;;2.30;1.50;;;21.10;99.90;;;;;;4222373;28;20586;-77
2023/07/29 07:00:22;;;;;;;2.13;1.70;;;21.20;99.90;;;;;;4225057;28;20304;-77
2023/07/29 07:02:24;;;;;;;2.40;1.83;;;21.30;99.90;;;;;;4226663;28;20215;-78
2023/07/29 07:04:26;;;;;;;4.23;3.23;;;21.40;99.90;;;;;;4226773;28;20230;-77
2023/07/29 07:06:29;;;;;;;4.87;3.00;;;21.50;99.90;;;;;;4227013;28;20217;-77
2023/07/29 07:08:34;;;;;;;2.37;2.07;;;21.70;99.90;;;;;;4232762;28;20213;-78
2023/07/29 07:10:36;;;;;;;3.57;1.50;;;21.80;99.90;;;;;;4225230;28;20213;-77
2023/07/29 07:12:38;;;;;;;2.63;1.67;;;22.10;99.90;;;;;;4227738;28;20213;-78
2023/07/29 07:14:40;;;;;;;2.40;1.20;;;22.10;99.90;;;;;;4224717;28;20188;-76
2023/07/29 07:16:42;;;;;;;2.10;1.60;;;22.30;99.90;;;;;;4218042;28;20233;-76
2023/07/29 07:18:44;;;;;;;2.70;1.40;;;22.40;99.90;;;;;;4225258;28;20676;-76
2023/07/29 07:20:48;;;;;;;2.33;1.40;;;22.50;99.90;;;;;;4222607;28;20241;-77
2023/07/29 07:22:51;;;;;;;3.10;1.40;;;22.50;99.90;;;;;;4223911;28;20259;-77
2023/07/29 07:24:53;;;;;;;2.20;1.37;;;22.60;99.90;;;;;;4220607;28;20327;-77
2023/07/29 07:26:55;;;;;;;5.27;1.30;;;22.70;99.90;;;;;;4220158;28;20274;-77
2023/07/29 07:28:57;;;;;;;1.23;1.13;;;22.60;99.90;;;;;;4223759;28;20231;-77
2023/07/29 07:30:59;;;;;;;1.53;1.30;;;22.60;99.90;;;;;;4219554;28;20284;-77
2023/07/29 07:33:01;;;;;;;1.50;1.40;;;22.60;99.90;;;;;;4219373;28;20236;-77
2023/07/29 07:35:03;;;;;;;1.40;1.30;;;22.70;99.90;;;;;;4222652;28;20291;-77
2023/07/29 07:37:06;;;;;;;1.30;1.10;;;22.70;99.90;;;;;;4222717;28;20254;-77
2023/07/29 07:39:09;;;;;;;2.00;1.57;;;22.80;99.90;;;;;;4211975;28;20262;-77
2023/07/29 07:41:11;;;;;;;2.80;1.90;;;22.90;99.90;;;;;;4219046;28;20681;-77
2023/07/29 07:43:12;;;;;;;2.23;1.43;;;22.90;99.90;;;;;;4223176;28;20209;-77
2023/07/29 07:45:14;;;;;;;2.03;1.40;;;23.00;99.90;;;;;;4221238;28;20291;-77
2023/07/29 07:47:16;;;;;;;2.13;1.50;;;23.10;99.90;;;;;;4220956;28;20224;-77
2023/07/29 07:49:18;;;;;;;2.70;1.30;;;23.10;99.90;;;;;;4219372;28;20216;-77
2023/07/29 07:51:19;;;;;;;2.03;1.43;;;23.10;99.90;;;;;;4222129;28;20228;-76
2023/07/29 07:53:21;;;;;;;1.53;1.30;;;23.10;99.90;;;;;;4221341;28;20234;-77
2023/07/29 07:55:24;;;;;;;1.57;1.33;;;23.20;99.90;;;;;;4222418;28;20292;-77
2023/07/29 07:57:26;;;;;;;2.00;1.20;;;23.20;99.90;;;;;;4220330;28;20300;-77
2023/07/29 07:59:28;;;;;;;1.53;1.30;;;23.20;99.90;;;;;;4221224;28;20636;-77
2023/07/29 08:01:35;;;;;;;2.70;1.50;;;23.20;99.90;;;;;;4223311;28;20661;-77
2023/07/29 08:03:37;;;;;;;1.20;1.10;;;23.20;99.90;;;;;;4220987;28;20208;-77
2023/07/29 08:05:39;;;;;;;3.20;1.20;;;23.20;99.90;;;;;;4219622;28;20220;-77
2023/07/29 08:07:40;;;;;;;1.33;1.23;;;23.20;99.90;;;;;;4221065;28;20247;-76
2023/07/29 08:09:42;;;;;;;5.03;2.80;;;23.20;99.90;;;;;;4219655;28;20201;-77
2023/07/29 08:11:45;;;;;;;3.70;1.37;;;23.30;99.90;;;;;;4219152;28;20341;-77
2023/07/29 08:13:47;;;;;;;2.40;1.40;;;23.20;99.90;;;;;;4223275;28;20205;-77
2023/07/29 08:15:49;;;;;;;2.37;1.30;;;23.20;99.90;;;;;;4222737;28;20315;-78
2023/07/29 08:17:51;;;;;;;3.43;1.57;;;23.30;99.90;;;;;;4225877;28;20240;-77
2023/07/29 08:19:52;;;;;;;1.30;1.20;;;23.30;99.90;;;;;;4227780;28;20419;-78
2023/07/29 08:21:54;;;;;;;1.20;1.10;;;23.30;99.90;;;;;;4229469;28;20213;-77
2023/07/29 08:23:56;;;;;;;2.33;1.30;;;23.40;99.90;;;;;;4224222;28;20937;-78
2023/07/29 08:26:01;;;;;;;1.40;1.30;;;23.40;99.90;;;;;;4224909;28;20233;-77
2023/07/29 08:28:05;;;;;;;1.30;1.20;;;23.40;99.90;;;;;;4231132;28;20215;-77
2023/07/29 08:30:08;;;;;;;1.30;1.20;;;23.40;99.90;;;;;;4232839;28;20235;-78
2023/07/29 08:32:10;;;;;;;1.40;1.30;;;23.40;99.90;;;;;;4234898;28;20243;-78
2023/07/29 08:34:11;;;;;;;1.93;1.10;;;23.50;99.90;;;;;;4228207;28;20235;-78
2023/07/29 08:36:13;;;;;;;6.07;1.30;;;23.50;99.90;;;;;;4228928;28;20225;-78
2023/07/29 08:38:15;;;;;;;1.27;1.17;;;23.60;99.90;;;;;;4229286;28;20250;-77
2023/07/29 08:40:17;;;;;;;1.33;1.23;;;23.70;99.90;;;;;;4229903;28;20236;-78
2023/07/29 08:42:20;;;;;;;1.20;1.10;;;23.80;99.90;;;;;;4225756;28;20719;-78
2023/07/29 08:44:26;;;;;;;1.63;1.20;;;23.90;99.90;;;;;;4221795;28;20648;-78
2023/07/29 08:46:28;;;;;;;1.93;1.10;;;24.00;99.90;;;;;;4216931;28;20236;-78
2023/07/29 08:48:34;;;;;;;2.27;1.37;;;24.10;99.90;;;;;;4218988;28;20217;-77
2023/07/29 08:50:37;;;;;;;2.50;1.80;;;24.10;99.90;;;;;;4219606;28;20261;-78
2023/07/29 08:52:42;;;;;;;2.43;1.50;;;24.20;99.90;;;;;;4219068;28;20209;-77
2023/07/29 08:54:44;;;;;;;1.30;1.07;;;24.30;99.90;;;;;;4216815;28;20220;-77
2023/07/29 08:56:47;;;;;;;3.40;1.37;;;24.30;99.90;;;;;;4221013;28;20225;-77
2023/07/29 08:58:49;;;;;;;1.67;1.00;;;24.40;99.90;;;;;;4221332;28;20745;-78
2023/07/29 09:00:53;;;;;;;1.73;1.30;;;24.50;99.90;;;;;;4220522;28;20232;-77
2023/07/29 09:02:55;;;;;;;2.70;1.10;;;24.50;99.90;;;;;;4218368;28;20200;-77
2023/07/29 09:04:57;;;;;;;1.47;1.10;;;24.60;99.90;;;;;;4219421;28;20824;-77
2023/07/29 09:07:01;;;;;;;1.23;1.00;;;24.60;99.90;;;;;;4216200;28;20227;-77
2023/07/29 09:09:03;;;;;;;1.53;1.10;;;24.70;99.90;;;;;;4219893;28;20205;-77
2023/07/29 09:11:05;;;;;;;1.93;1.13;;;24.80;99.90;;;;;;4216443;28;20209;-77
2023/07/29 09:13:06;;;;;;;1.40;1.10;;;24.90;99.90;;;;;;4216281;28;20652;-77
2023/07/29 09:15:09;;;;;;;1.20;1.10;;;25.00;99.90;;;;;;4216905;28;20580;-76
2023/07/29 09:17:13;;;;;;;0.97;0.80;;;25.10;99.90;;;;;;4220538;28;20422;-76
2023/07/29 09:19:15;;;;;;;1.17;1.07;;;25.00;99.90;;;;;;4217617;28;20204;-76
2023/07/29 09:21:18;;;;;;;1.10;1.00;;;25.10;99.90;;;;;;4215876;28;20212;-76
2023/07/29 09:23:20;;;;;;;1.53;0.80;;;25.00;99.90;;;;;;4218417;28;20253;-76
2023/07/29 09:25:26;;;;;;;0.80;0.80;;;25.00;99.90;;;;;;4216013;28;20569;-76
2023/07/29 09:27:31;;;;;;;1.93;0.80;;;25.10;99.90;;;;;;4220912;28;20286;-76
2023/07/29 09:29:37;;;;;;;0.90;0.50;;;25.10;99.90;;;;;;4220034;28;20669;-76
2023/07/29 09:31:39;;;;;;;0.67;0.60;;;25.10;99.90;;;;;;4222494;28;20208;-76
2023/07/29 09:33:43;;;;;;;0.67;0.67;;;25.10;99.90;;;;;;4220008;28;20305;-76
2023/07/29 09:35:46;;;;;;;0.63;0.63;;;25.20;99.90;;;;;;4213435;28;20244;-76
2023/07/29 09:37:49;;;;;;;1.20;0.60;;;25.10;99.90;;;;;;4216993;28;20338;-76
2023/07/29 09:39:51;;;;;;;0.97;0.63;;;25.20;99.90;;;;;;4216367;28;20584;-78
2023/07/29 09:41:53;;;;;;;1.30;0.80;;;25.20;99.90;;;;;;4225052;28;20235;-78
2023/07/29 09:44:00;;;;;;;1.23;0.80;;;25.20;99.90;;;;;;4219362;28;20204;-78
2023/07/29 09:46:04;;;;;;;0.80;0.60;;;25.10;99.90;;;;;;4220849;28;20301;-78
2023/07/29 09:48:09;;;;;;;1.90;0.87;;;25.10;99.90;;;;;;4219533;28;20208;-78
2023/07/29 09:50:12;;;;;;;0.70;0.70;;;25.10;99.90;;;;;;4221506;28;20260;-76
2023/07/29 09:52:16;;;;;;;0.90;0.80;;;25.00;99.90;;;;;;4219167;28;20300;-76
2023/07/29 09:54:18;;;;;;;0.77;0.70;;;25.00;99.90;;;;;;4220437;28;20209;-76
2023/07/29 09:56:26;;;;;;;1.33;0.70;;;24.90;99.90;;;;;;4226865;28;20229;-76
2023/07/29 09:58:29;;;;;;;1.00;0.70;;;24.90;99.90;;;;;;4218886;28;20215;-76
2023/07/29 10:00:31;;;;;;;1.47;0.70;;;24.90;99.90;;;;;;4221896;28;20255;-76
2023/07/29 10:02:33;;;;;;;1.20;0.90;;;24.90;99.90;;;;;;4220645;28;20251;-76
2023/07/29 10:04:36;;;;;;;0.73;0.70;;;25.00;99.90;;;;;;4221343;28;20219;-76
2023/07/29 10:06:40;;;;;;;1.07;0.87;;;25.00;99.90;;;;;;4223130;28;20259;-76
2023/07/29 10:08:43;;;;;;;1.80;0.70;;;25.00;99.90;;;;;;4221379;28;20205;-76
2023/07/29 10:10:45;;;;;;;1.20;0.80;;;25.00;99.90;;;;;;4222983;28;20262;-77
2023/07/29 10:12:47;;;;;;;1.37;0.77;;;25.10;99.90;;;;;;4221515;28;20292;-76
2023/07/29 10:14:51;;;;;;;1.50;1.00;;;25.10;99.90;;;;;;4223245;28;20219;-76
2023/07/29 10:16:53;;;;;;;0.70;0.70;;;25.20;99.90;;;;;;4222229;28;20229;-76
2023/07/29 10:18:57;;;;;;;0.70;0.70;;;25.20;99.90;;;;;;4223979;28;20217;-74
2023/07/29 10:21:00;;;;;;;1.00;0.80;;;25.30;99.90;;;;;;4231584;28;20248;-75
2023/07/29 10:23:06;;;;;;;1.40;1.10;;;25.40;99.90;;;;;;4227644;28;20217;-75
2023/07/29 10:25:11;;;;;;;3.43;1.47;;;25.40;99.90;;;;;;4222812;28;20862;-75
2023/07/29 10:27:15;;;;;;;0.80;0.80;;;25.30;99.90;;;;;;4226347;28;20232;-75
2023/07/29 10:29:21;;;;;;;0.77;0.73;;;25.20;99.90;;;;;;4217089;28;20248;-74
2023/07/29 10:31:24;;;;;;;3.13;0.77;;;25.10;99.90;;;;;;4223426;28;20217;-74
2023/07/29 10:33:26;;;;;;;0.77;0.70;;;25.00;99.90;;;;;;4219352;28;20646;-76
2023/07/29 10:35:28;;;;;;;0.70;0.70;;;24.90;99.90;;;;;;4218252;28;20200;-76
2023/07/29 10:37:30;;;;;;;0.90;0.70;;;24.80;99.90;;;;;;4228067;28;20758;-75
2023/07/29 10:39:39;;;;;;;0.70;0.70;;;24.80;99.90;;;;;;4224957;28;20209;-76